Time;durP1;ratioP1;P1;durP2;ratioP2;P2;SDS_P1;SDS_P2;PMS_P1;PMS_P2;Temp;Humidity;BMP_temperature;BMP_pressure;BME280_temperature;BME280_humidity;BME280_pressure;Samples;Min_cycle;Max_cycle;Signal;HPM_P1;HPM_P2
2022/12/27 00:01:54;;;;;;;15.55;3.38;;;4.30;99.90;;;;;;4927005;29;20582;-78
2022/12/27 00:04:20;;;;;;;12.43;2.58;;;4.30;99.90;;;;;;4930379;29;20443;-79
2022/12/27 00:06:46;;;;;;;11.57;2.08;;;4.40;99.90;;;;;;4929860;29;20435;-80
2022/12/27 00:09:12;;;;;;;16.52;3.08;;;4.40;99.90;;;;;;4928287;29;20427;-78
2022/12/27 00:11:38;;;;;;;9.57;2.05;;;4.30;99.90;;;;;;4942212;29;20447;-78
2022/12/27 00:14:05;;;;;;;11.38;2.10;;;4.50;99.90;;;;;;4929724;29;20434;-77
2022/12/27 00:16:32;;;;;;;12.30;2.92;;;4.30;99.90;;;;;;4928366;29;20466;-77
2022/12/27 00:18:58;;;;;;;9.05;2.70;;;4.40;99.90;;;;;;4929262;29;20510;-78
2022/12/27 00:21:24;;;;;;;14.33;3.33;;;4.50;99.90;;;;;;4930098;29;20431;-77
2022/12/27 00:23:53;;;;;;;14.20;4.07;;;4.50;99.90;;;;;;4930208;29;20795;-79
2022/12/27 00:26:25;;;;;;;12.15;2.78;;;4.50;99.90;;;;;;4929321;29;20476;-78
2022/12/27 00:28:51;;;;;;;14.40;3.13;;;4.50;99.90;;;;;;4930068;29;20419;-76
2022/12/27 00:31:18;;;;;;;13.13;3.33;;;4.60;99.90;;;;;;4926546;29;20451;-78
2022/12/27 00:33:46;;;;;;;10.00;2.33;;;4.60;99.90;;;;;;4921310;29;20534;-78
2022/12/27 00:36:14;;;;;;;12.48;2.05;;;4.60;99.90;;;;;;4928713;29;20482;-76
2022/12/27 00:38:40;;;;;;;9.23;2.22;;;4.70;99.90;;;;;;4929371;29;20435;-79
2022/12/27 00:41:06;;;;;;;11.43;2.45;;;4.70;99.90;;;;;;4930362;29;20443;-77
2022/12/27 00:43:32;;;;;;;12.63;2.88;;;4.70;99.90;;;;;;4939229;28;20432;-76
2022/12/27 00:45:58;;;;;;;11.02;2.25;;;4.70;99.90;;;;;;4928434;29;20884;-78
2022/12/27 00:48:24;;;;;;;13.38;2.75;;;4.80;99.90;;;;;;4929551;29;20515;-78
2022/12/27 00:50:49;;;;;;;13.38;2.40;;;4.80;99.90;;;;;;4930309;29;20447;-79
2022/12/27 00:53:16;;;;;;;11.68;2.40;;;4.80;99.90;;;;;;4930184;29;20810;-78
2022/12/27 00:55:43;;;;;;;32.53;4.50;;;4.90;99.90;;;;;;4930031;29;20415;-78
2022/12/27 00:58:09;;;;;;;13.57;3.28;;;5.00;99.90;;;;;;4930848;29;20478;-77
2022/12/27 01:00:35;;;;;;;11.80;3.23;;;5.00;99.90;;;;;;4929015;29;20518;-77
2022/12/27 01:03:00;;;;;;;8.70;2.17;;;5.00;99.90;;;;;;4591663;23;20471;-70
2022/12/27 01:05:26;;;;;;;12.57;2.85;;;5.00;99.90;;;;;;4959440;28;20523;-70
2022/12/27 01:07:52;;;;;;;10.65;3.05;;;5.00;99.90;;;;;;4961804;28;20459;-69
2022/12/27 01:10:17;;;;;;;9.38;2.00;;;4.90;99.90;;;;;;4963291;28;20443;-70
2022/12/27 01:12:43;;;;;;;12.00;2.70;;;4.90;99.90;;;;;;4964514;28;20514;-70
2022/12/27 01:15:09;;;;;;;11.48;3.00;;;4.90;99.90;;;;;;4964017;28;20810;-71
2022/12/27 01:17:35;;;;;;;12.90;2.78;;;4.80;99.90;;;;;;4947163;28;20436;-69
2022/12/27 01:20:01;;;;;;;12.63;3.42;;;4.90;99.90;;;;;;4964291;28;20932;-70
2022/12/27 01:22:27;;;;;;;13.15;2.63;;;5.00;99.90;;;;;;4945928;28;20467;-69
2022/12/27 01:24:52;;;;;;;10.73;2.05;;;4.90;99.90;;;;;;4966346;28;20443;-71
2022/12/27 01:27:18;;;;;;;8.40;2.10;;;4.80;99.90;;;;;;4963008;28;20440;-70
2022/12/27 01:29:43;;;;;;;10.90;2.20;;;4.80;99.90;;;;;;4966001;28;20525;-69
2022/12/27 01:32:09;;;;;;;11.50;2.50;;;4.70;99.90;;;;;;4961895;28;20451;-69
2022/12/27 01:34:35;;;;;;;9.85;2.25;;;4.60;99.90;;;;;;4945076;28;20945;-69
2022/12/27 01:37:01;;;;;;;15.67;3.70;;;4.80;99.90;;;;;;4964198;28;20902;-70
2022/12/27 01:39:26;;;;;;;13.33;2.73;;;4.80;99.90;;;;;;4962845;28;20918;-70
2022/12/27 01:44:41;;;;;;;13.65;2.53;;;4.70;99.90;;;;;;4947037;28;20434;-69
2022/12/27 01:47:31;;;;;;;16.90;3.65;;;4.80;99.90;;;;;;4959724;28;20436;-70
2022/12/27 01:50:09;;;;;;;10.38;2.55;;;4.80;99.90;;;;;;4958340;28;20779;-70
2022/12/27 01:52:42;;;;;;;11.35;2.47;;;5.00;99.90;;;;;;4962330;28;21036;-70
2022/12/27 01:55:17;;;;;;;12.63;2.30;;;4.90;99.90;;;;;;4965272;28;20436;-70
2022/12/27 01:57:44;;;;;;;13.43;3.67;;;5.00;99.90;;;;;;4962705;28;20441;-70
2022/12/27 02:00:10;;;;;;;15.15;3.45;;;5.10;99.90;;;;;;4965404;28;20490;-69
2022/12/27 02:02:36;;;;;;;14.90;2.90;;;5.00;99.90;;;;;;4957338;28;20543;-69
2022/12/27 02:05:03;;;;;;;15.32;3.45;;;4.80;99.90;;;;;;4963559;28;20440;-69
2022/12/27 02:07:53;;;;;;;13.48;2.60;;;4.80;99.90;;;;;;4962328;28;20471;-69
2022/12/27 02:10:19;;;;;;;12.25;2.53;;;4.70;99.90;;;;;;4935601;28;20444;-69
2022/12/27 02:12:45;;;;;;;13.23;2.60;;;5.00;99.90;;;;;;4957646;28;20437;-69
2022/12/27 02:15:11;;;;;;;20.40;3.85;;;4.90;99.90;;;;;;4963518;28;20798;-70
2022/12/27 02:17:36;;;;;;;13.13;2.00;;;4.90;99.90;;;;;;4960945;28;20428;-71
2022/12/27 02:20:22;;;;;;;10.93;2.63;;;4.80;99.90;;;;;;4963158;28;20444;-70
2022/12/27 02:26:37;;;;;;;12.32;2.58;;;4.80;99.90;;;;;;4958988;28;20447;-70
2022/12/27 02:29:15;;;;;;;11.25;2.08;;;4.80;99.90;;;;;;4956554;28;20436;-71
2022/12/27 02:31:47;;;;;;;10.18;2.35;;;4.80;99.90;;;;;;4961881;28;20523;-70
2022/12/27 02:34:28;;;;;;;13.40;3.05;;;4.80;99.90;;;;;;4954811;28;20799;-70
2022/12/27 02:37:04;;;;;;;8.00;2.47;;;4.90;99.90;;;;;;4963034;28;20487;-70
2022/12/27 02:39:33;;;;;;;10.85;2.47;;;4.80;99.90;;;;;;4962603;28;20452;-69
2022/12/27 02:53:25;;;;;;;13.23;2.70;;;4.70;99.90;;;;;;4961951;28;20431;-70
2022/12/27 03:03:27;;;;;;;13.85;3.10;;;4.50;99.90;;;;;;4953714;28;21137;-70
2022/12/27 03:06:41;;;;;;;11.93;3.03;;;4.60;99.90;;;;;;4966292;28;20440;-70
2022/12/27 03:15:56;;;;;;;16.30;2.60;;;4.60;99.90;;;;;;4967992;28;20420;-68
2022/12/27 03:18:43;;;;;;;13.32;3.47;;;4.20;99.90;;;;;;4949233;28;20501;-70
2022/12/27 03:26:50;;;;;;;15.70;2.67;;;4.60;99.90;;;;;;4960741;28;20763;-70
2022/12/27 03:35:04;;;;;;;13.88;3.90;;;4.70;99.90;;;;;;4968522;28;20431;-69
2022/12/27 03:40:37;;;;;;;17.77;2.85;;;4.60;99.90;;;;;;4966994;28;20474;-68
2022/12/27 03:43:14;;;;;;;15.75;3.60;;;4.90;99.90;;;;;;4966481;28;20491;-70
2022/12/27 03:48:37;;;;;;;16.13;3.30;;;4.90;99.90;;;;;;4964132;28;20477;-69
2022/12/27 03:51:04;;;;;;;14.85;2.65;;;5.00;99.90;;;;;;4968447;28;20436;-71
2022/12/27 03:53:38;;;;;;;10.27;3.10;;;4.80;99.90;;;;;;4967045;28;20499;-70
2022/12/27 03:56:05;;;;;;;15.15;2.47;;;4.60;99.90;;;;;;4965104;28;20558;-70
2022/12/27 03:58:31;;;;;;;11.70;2.85;;;4.70;99.90;;;;;;4963221;28;20425;-70
2022/12/27 04:00:57;;;;;;;14.27;2.53;;;4.60;99.90;;;;;;4962920;28;20429;-70
2022/12/27 04:03:23;;;;;;;15.23;5.03;;;4.60;99.90;;;;;;4953074;28;20436;-69
2022/12/27 04:05:48;;;;;;;12.83;2.97;;;4.60;99.90;;;;;;4966907;28;20482;-70
2022/12/27 04:35:38;;;;;;;11.98;2.85;;;4.20;99.90;;;;;;4967953;28;20413;-70
2022/12/27 04:38:04;;;;;;;11.65;3.30;;;4.20;99.90;;;;;;4966599;28;20424;-69
2022/12/27 04:57:03;;;;;;;15.35;3.00;;;4.80;99.90;;;;;;4960979;28;20434;-70
2022/12/27 05:02:15;;;;;;;6.80;1.37;;;4.50;99.90;;;;;;4964195;28;20512;-69
2022/12/27 05:04:41;;;;;;;6.45;1.48;;;4.30;99.90;;;;;;4948806;28;20446;-70
2022/12/27 05:15:26;;;;;;;15.13;2.92;;;4.10;99.90;;;;;;4945931;29;21227;-70
2022/12/27 05:17:52;;;;;;;12.60;2.40;;;4.30;99.90;;;;;;4947189;28;20776;-70
2022/12/27 05:20:17;;;;;;;12.93;2.67;;;4.10;99.90;;;;;;4962934;28;20428;-69
2022/12/27 05:25:33;;;;;;;9.82;2.28;;;4.40;99.90;;;;;;4953291;28;20531;-69
2022/12/27 05:28:03;;;;;;;10.40;2.47;;;4.20;99.90;;;;;;4965831;28;20447;-69
2022/12/27 05:30:32;;;;;;;9.63;2.30;;;4.20;99.90;;;;;;4964486;28;20436;-69
2022/12/27 05:32:58;;;;;;;12.05;2.20;;;3.90;99.90;;;;;;4958487;28;20448;-69
2022/12/27 05:35:23;;;;;;;10.75;2.65;;;4.20;99.90;;;;;;4965277;28;20965;-70
2022/12/27 05:37:49;;;;;;;16.45;2.88;;;3.90;99.90;;;;;;4966425;28;20566;-71
2022/12/27 05:40:15;;;;;;;14.48;3.30;;;4.10;99.90;;;;;;4961395;28;20439;-70
2022/12/27 05:42:41;;;;;;;19.95;4.10;;;3.90;99.90;;;;;;4964290;28;20782;-70
2022/12/27 05:45:07;;;;;;;15.10;3.78;;;4.10;99.90;;;;;;4964275;28;21190;-71
2022/12/27 05:47:33;;;;;;;19.20;3.80;;;3.70;99.90;;;;;;4964345;28;20412;-70
2022/12/27 05:49:58;;;;;;;14.77;3.17;;;3.80;99.90;;;;;;4964766;28;20788;-71
2022/12/27 05:52:24;;;;;;;15.80;3.65;;;4.00;99.90;;;;;;4964193;28;20499;-70
2022/12/27 05:54:50;;;;;;;14.27;2.33;;;3.60;99.90;;;;;;4962040;28;20465;-70
2022/12/27 05:57:15;;;;;;;11.17;2.57;;;3.60;99.90;;;;;;4965279;28;20451;-69
2022/12/27 05:59:41;;;;;;;11.40;3.53;;;3.80;99.90;;;;;;4964568;28;20933;-70
2022/12/27 06:02:07;;;;;;;9.30;2.57;;;3.90;99.90;;;;;;4963429;28;20459;-69
2022/12/27 06:04:32;;;;;;;15.43;3.63;;;3.60;99.90;;;;;;4963921;28;20431;-70
2022/12/27 06:06:58;;;;;;;9.37;2.30;;;3.80;99.90;;;;;;4962447;28;20439;-69
2022/12/27 06:09:24;;;;;;;12.40;2.17;;;3.40;99.90;;;;;;4963972;28;20432;-70
2022/12/27 06:11:50;;;;;;;8.05;2.35;;;3.40;99.90;;;;;;4965463;28;20815;-70
2022/12/27 06:14:16;;;;;;;15.67;3.03;;;3.80;99.90;;;;;;4965058;28;20443;-70
2022/12/27 06:16:42;;;;;;;11.30;2.00;;;3.50;99.90;;;;;;4963964;28;20436;-70
2022/12/27 06:19:08;;;;;;;14.75;2.85;;;3.70;99.90;;;;;;4964404;28;20420;-70
2022/12/27 06:21:33;;;;;;;10.70;2.33;;;3.60;99.90;;;;;;4965774;28;20436;-69
2022/12/27 06:23:59;;;;;;;12.63;2.50;;;3.70;99.90;;;;;;4964639;28;20554;-69
2022/12/27 06:26:27;;;;;;;12.37;2.30;;;3.40;99.90;;;;;;4961482;28;20440;-70
2022/12/27 06:28:56;;;;;;;10.43;2.20;;;3.70;99.90;;;;;;4966174;28;20408;-70
2022/12/27 06:31:22;;;;;;;10.20;2.47;;;3.50;99.90;;;;;;4970088;28;20438;-70
2022/12/27 06:33:49;;;;;;;14.23;3.63;;;3.50;99.90;;;;;;4972898;28;20420;-70
2022/12/27 06:36:18;;;;;;;7.43;1.80;;;3.60;99.90;;;;;;4969274;28;20732;-71
2022/12/27 06:38:45;;;;;;;9.13;1.70;;;3.30;99.90;;;;;;4965655;28;20470;-69
2022/12/27 06:41:12;;;;;;;12.02;2.40;;;3.70;99.90;;;;;;4968649;28;20412;-70
2022/12/27 06:43:38;;;;;;;8.60;2.30;;;3.40;99.90;;;;;;4968279;28;20416;-70
2022/12/27 06:46:06;;;;;;;14.30;2.57;;;3.70;99.90;;;;;;4976161;28;20506;-72
2022/12/27 06:48:32;;;;;;;16.38;3.60;;;3.80;99.90;;;;;;4968921;28;20427;-70
2022/12/27 06:50:58;;;;;;;12.20;2.80;;;3.70;99.90;;;;;;4969358;28;20451;-71
2022/12/27 06:53:24;;;;;;;11.60;2.50;;;3.80;99.90;;;;;;4967689;28;20428;-69
2022/12/27 06:55:49;;;;;;;11.82;2.30;;;4.10;99.90;;;;;;4968035;28;20454;-71
2022/12/27 06:58:15;;;;;;;11.93;2.65;;;4.10;99.90;;;;;;4968484;28;20455;-71
2022/12/27 07:00:41;;;;;;;7.05;1.60;;;4.30;99.90;;;;;;4941589;29;20480;-70
2022/12/27 07:03:07;;;;;;;9.95;1.90;;;4.20;99.90;;;;;;4948792;28;20421;-70
2022/12/27 07:05:36;;;;;;;14.57;2.92;;;3.80;99.90;;;;;;4950625;29;20422;-69
2022/12/27 07:08:03;;;;;;;10.52;2.30;;;4.10;99.90;;;;;;4967284;28;20457;-70
2022/12/27 07:10:29;;;;;;;11.55;2.47;;;3.70;99.90;;;;;;4967408;28;20428;-70
2022/12/27 07:12:55;;;;;;;14.10;3.38;;;3.60;99.90;;;;;;4967815;28;20922;-70
2022/12/27 07:15:21;;;;;;;20.02;2.78;;;3.70;99.90;;;;;;4968666;28;20448;-70
2022/12/27 07:17:47;;;;;;;13.40;2.97;;;4.10;99.90;;;;;;4966436;28;21364;-71
2022/12/27 07:20:12;;;;;;;12.17;2.53;;;3.80;99.90;;;;;;4967922;28;20428;-69
2022/12/27 07:22:38;;;;;;;15.53;3.20;;;3.80;99.90;;;;;;4967961;28;20479;-71
2022/12/27 07:25:05;;;;;;;18.45;3.00;;;3.80;99.90;;;;;;4969459;28;20420;-70
2022/12/27 07:27:34;;;;;;;12.23;3.85;;;3.70;99.90;;;;;;4969011;28;20495;-69
2022/12/27 07:30:00;;;;;;;17.33;3.13;;;4.00;99.90;;;;;;4937986;28;20766;-69
2022/12/27 07:32:26;;;;;;;17.40;3.33;;;4.00;99.90;;;;;;4931377;29;20491;-70
2022/12/27 07:34:52;;;;;;;22.33;5.05;;;3.60;99.90;;;;;;4932626;29;20425;-70
2022/12/27 07:37:18;;;;;;;15.52;3.20;;;3.90;99.90;;;;;;4959755;28;20435;-70
2022/12/27 07:39:44;;;;;;;14.93;3.10;;;3.70;99.90;;;;;;4967791;28;20439;-70
2022/12/27 07:42:10;;;;;;;20.50;3.93;;;3.60;99.90;;;;;;4968541;28;20803;-69
2022/12/27 07:44:36;;;;;;;11.17;2.50;;;3.70;99.90;;;;;;4965820;28;20424;-70
2022/12/27 07:47:02;;;;;;;13.35;3.22;;;3.90;99.90;;;;;;4966778;28;21283;-70
2022/12/27 07:49:27;;;;;;;17.52;3.83;;;3.90;99.90;;;;;;4968219;28;20756;-70
2022/12/27 07:51:53;;;;;;;16.67;3.08;;;3.40;99.90;;;;;;4967386;28;20423;-71
2022/12/27 07:54:19;;;;;;;10.13;2.80;;;3.80;99.90;;;;;;4950593;28;20428;-70
2022/12/27 07:56:45;;;;;;;17.23;3.40;;;3.30;99.90;;;;;;4951110;28;20435;-69
2022/12/27 07:59:12;;;;;;;17.33;2.87;;;3.60;99.90;;;;;;4963076;28;20428;-69
2022/12/27 08:04:39;;;;;;;12.90;2.33;;;3.20;99.90;;;;;;4906866;29;20453;-71
2022/12/27 08:07:11;;;;;;;12.80;3.10;;;3.50;99.90;;;;;;4936264;29;20977;-69
2022/12/27 08:09:39;;;;;;;17.38;3.70;;;3.10;99.90;;;;;;4963327;28;20778;-70
2022/12/27 08:12:06;;;;;;;11.70;2.95;;;3.20;99.90;;;;;;4967825;28;20981;-69
2022/12/27 08:14:31;;;;;;;13.90;2.53;;;3.50;99.90;;;;;;4966845;28;20848;-69
2022/12/27 08:17:03;;;;;;;13.63;3.13;;;3.50;99.90;;;;;;4963356;28;20504;-70
2022/12/27 08:19:28;;;;;;;21.30;4.40;;;3.20;99.90;;;;;;4967978;28;20404;-69
2022/12/27 08:21:54;;;;;;;24.73;4.18;;;3.50;99.90;;;;;;4968314;28;20897;-70
2022/12/27 08:24:20;;;;;;;17.83;4.00;;;3.50;99.90;;;;;;4967785;28;20943;-70
2022/12/27 08:26:45;;;;;;;16.15;3.20;;;3.50;99.90;;;;;;4965063;28;20432;-70
2022/12/27 08:29:11;;;;;;;12.93;3.22;;;3.30;99.90;;;;;;4966058;28;21018;-70
2022/12/27 08:31:37;;;;;;;18.98;4.55;;;3.50;99.90;;;;;;4962646;28;20443;-71
2022/12/27 08:34:03;;;;;;;12.02;3.53;;;3.50;99.90;;;;;;4968193;28;20712;-71
2022/12/27 08:36:29;;;;;;;15.05;3.70;;;3.50;99.90;;;;;;4965459;28;20511;-70
2022/12/27 08:38:54;;;;;;;13.85;2.92;;;3.60;99.90;;;;;;4966558;28;20511;-70
2022/12/27 08:41:21;;;;;;;17.05;3.03;;;3.40;99.90;;;;;;4965685;28;20918;-70
2022/12/27 08:43:47;;;;;;;14.68;5.15;;;3.60;99.90;;;;;;4963882;28;20851;-70
2022/12/27 08:46:13;;;;;;;14.48;2.78;;;3.30;99.90;;;;;;4967472;28;20467;-70
2022/12/27 08:48:38;;;;;;;18.83;3.80;;;3.70;99.90;;;;;;4966537;28;20412;-70
2022/12/27 08:51:06;;;;;;;13.97;2.90;;;3.50;99.90;;;;;;4949481;28;20827;-70
2022/12/27 08:53:31;;;;;;;18.00;2.90;;;3.80;99.90;;;;;;4963700;28;21984;-70
2022/12/27 08:55:57;;;;;;;14.38;2.67;;;3.50;99.90;;;;;;4962442;28;20515;-70
2022/12/27 08:58:23;;;;;;;15.23;3.87;;;3.80;99.90;;;;;;4966100;28;20432;-69
2022/12/27 09:00:49;;;;;;;16.27;4.17;;;4.00;99.90;;;;;;4952413;28;22398;-70
2022/12/27 09:03:18;;;;;;;14.02;3.28;;;3.60;99.90;;;;;;4959871;28;20446;-70
2022/12/27 09:05:43;;;;;;;17.27;3.75;;;3.90;99.90;;;;;;4947735;28;20426;-70
2022/12/27 09:08:09;;;;;;;10.60;2.92;;;3.90;99.90;;;;;;4965716;28;20430;-70
2022/12/27 09:10:35;;;;;;;14.70;3.27;;;4.00;99.90;;;;;;4963594;28;20794;-70
2022/12/27 09:13:01;;;;;;;21.00;5.13;;;4.00;99.90;;;;;;4960984;28;20420;-71
2022/12/27 09:15:27;;;;;;;13.20;3.92;;;4.00;99.90;;;;;;4965328;28;20611;-70
2022/12/27 09:17:53;;;;;;;12.93;3.37;;;4.00;99.90;;;;;;4956050;28;20505;-71
2022/12/27 09:20:19;;;;;;;14.43;3.10;;;4.20;99.90;;;;;;4960645;28;20441;-70
2022/12/27 09:22:44;;;;;;;14.70;3.67;;;4.40;99.90;;;;;;4965712;28;20515;-70
2022/12/27 09:25:10;;;;;;;17.38;3.85;;;4.40;99.90;;;;;;4948645;28;20440;-68
2022/12/27 09:27:37;;;;;;;16.80;3.58;;;4.30;99.90;;;;;;4963555;28;20838;-71
2022/12/27 09:30:04;;;;;;;12.70;2.67;;;4.10;99.90;;;;;;4962684;28;20447;-71
2022/12/27 09:32:30;;;;;;;17.65;4.47;;;4.20;99.90;;;;;;4950152;28;20814;-70
2022/12/27 09:34:56;;;;;;;15.70;4.47;;;4.30;99.90;;;;;;4965667;28;22032;-71
2022/12/27 09:37:22;;;;;;;15.65;3.15;;;4.30;99.90;;;;;;4948703;28;20414;-70
2022/12/27 09:39:47;;;;;;;12.43;3.30;;;4.30;99.90;;;;;;4955408;28;20431;-70
2022/12/27 09:42:41;;;;;;;16.45;3.22;;;4.60;99.90;;;;;;4965669;28;20435;-70
2022/12/27 09:45:16;;;;;;;12.18;3.58;;;4.80;99.90;;;;;;4965876;28;20774;-70
2022/12/27 09:47:54;;;;;;;15.43;3.25;;;4.70;99.90;;;;;;4963388;28;20412;-70
2022/12/27 09:50:28;;;;;;;13.55;3.90;;;4.60;99.90;;;;;;4963700;28;20436;-74
2022/12/27 09:53:00;;;;;;;15.55;2.97;;;4.70;99.90;;;;;;4961831;28;20875;-71
2022/12/27 09:55:41;;;;;;;16.38;3.47;;;4.80;99.90;;;;;;4955981;28;20432;-70
2022/12/27 09:58:26;;;;;;;14.30;3.33;;;4.80;99.90;;;;;;4965259;28;20875;-70
2022/12/27 10:00:52;;;;;;;24.50;4.47;;;5.00;99.90;;;;;;4948395;28;20432;-70
2022/12/27 10:07:18;;;;;;;12.50;3.10;;;5.00;99.90;;;;;;4365529;23;20473;-75
2022/12/27 10:10:00;;;;;;;16.27;4.20;;;5.10;99.90;;;;;;4946991;28;20437;-75
2022/12/27 10:12:47;;;;;;;13.95;3.13;;;5.00;99.90;;;;;;4947282;28;20405;-76
2022/12/27 10:15:31;;;;;;;15.75;3.78;;;5.10;99.90;;;;;;4949796;28;20515;-74
2022/12/27 10:18:12;;;;;;;10.43;3.13;;;5.30;99.90;;;;;;4965572;28;20881;-77
2022/12/27 10:21:03;;;;;;;16.52;3.70;;;5.40;99.90;;;;;;4960636;28;20433;-77
2022/12/27 10:23:33;;;;;;;9.35;2.92;;;5.30;99.90;;;;;;4964717;28;20790;-76
2022/12/27 10:26:05;;;;;;;19.27;4.18;;;5.40;99.90;;;;;;4965856;28;20470;-74
2022/12/27 10:29:16;;;;;;;12.17;3.17;;;5.50;99.90;;;;;;4965741;28;20427;-74
2022/12/27 10:31:42;;;;;;;12.07;2.65;;;5.70;99.90;;;;;;4937979;28;20480;-75
2022/12/27 10:34:12;;;;;;;15.57;3.60;;;5.50;99.90;;;;;;4980693;28;20424;-79
2022/12/27 10:36:40;;;;;;;16.73;3.67;;;5.50;99.90;;;;;;4961566;28;20480;-77
2022/12/27 10:39:17;;;;;;;16.80;3.83;;;5.60;99.90;;;;;;4965340;28;20417;-77
2022/12/27 10:42:07;;;;;;;11.57;2.67;;;5.60;99.90;;;;;;4965099;28;20925;-77
2022/12/27 10:44:33;;;;;;;9.85;2.65;;;5.70;99.90;;;;;;4978430;28;20727;-76
2022/12/27 10:46:59;;;;;;;14.95;3.88;;;5.70;99.90;;;;;;4965757;28;20412;-77
2022/12/27 10:49:29;;;;;;;14.35;3.40;;;5.70;99.90;;;;;;4965109;28;20771;-77
2022/12/27 10:52:18;;;;;;;11.63;2.83;;;5.80;99.90;;;;;;4964575;28;20814;-78
2022/12/27 10:54:53;;;;;;;7.07;2.27;;;5.70;99.90;;;;;;4956234;28;20461;-78
2022/12/27 10:57:29;;;;;;;12.98;2.72;;;5.70;99.90;;;;;;4951125;28;20786;-77
2022/12/27 11:00:13;;;;;;;14.25;2.83;;;5.70;99.90;;;;;;4956725;28;20423;-75
2022/12/27 11:02:59;;;;;;;11.90;2.63;;;5.60;99.90;;;;;;4965498;28;20495;-75
2022/12/27 11:05:30;;;;;;;14.18;2.85;;;5.60;99.90;;;;;;4966004;28;20408;-76
2022/12/27 11:07:56;;;;;;;12.02;3.08;;;5.60;99.90;;;;;;4965307;28;20511;-76
2022/12/27 11:10:24;;;;;;;16.33;3.30;;;5.60;99.90;;;;;;4965954;28;20528;-75
2022/12/27 11:13:04;;;;;;;11.05;2.75;;;5.70;99.90;;;;;;4965551;28;20425;-79
2022/12/27 11:15:40;;;;;;;8.82;2.60;;;5.90;99.90;;;;;;4965963;28;20426;-76
2022/12/27 11:18:17;;;;;;;11.48;3.53;;;5.80;99.90;;;;;;4968150;28;20416;-76
2022/12/27 11:20:50;;;;;;;10.88;2.80;;;5.90;99.90;;;;;;4951177;28;20504;-77
2022/12/27 11:23:21;;;;;;;13.43;2.70;;;5.90;99.90;;;;;;4969122;28;20435;-77
2022/12/27 11:26:06;;;;;;;6.90;2.13;;;5.70;99.90;;;;;;4967910;28;20427;-76
2022/12/27 11:28:38;;;;;;;13.40;2.70;;;5.80;99.90;;;;;;4959995;28;20491;-76
2022/12/27 11:31:11;;;;;;;11.85;2.75;;;5.70;99.90;;;;;;4970589;28;20494;-76
2022/12/27 11:33:39;;;;;;;9.03;2.50;;;5.80;99.90;;;;;;4969935;28;20483;-77
2022/12/27 11:36:08;;;;;;;12.98;2.53;;;5.70;99.90;;;;;;4969408;28;20459;-75
2022/12/27 11:38:36;;;;;;;10.02;2.47;;;5.60;99.90;;;;;;4969912;28;20487;-75
2022/12/27 11:41:22;;;;;;;15.88;3.60;;;5.80;99.90;;;;;;4968646;28;20442;-78
2022/12/27 11:44:20;;;;;;;11.95;3.38;;;5.90;99.90;;;;;;4954099;28;20473;-76
2022/12/27 11:47:02;;;;;;;12.67;3.47;;;5.90;99.90;;;;;;4939792;29;20462;-76
2022/12/27 11:49:44;;;;;;;14.32;3.30;;;5.80;99.90;;;;;;4949244;28;20773;-76
2022/12/27 11:52:51;;;;;;;11.97;2.37;;;6.00;99.90;;;;;;4948877;28;20722;-75
2022/12/27 11:55:29;;;;;;;13.85;2.75;;;6.00;99.90;;;;;;4955187;28;20435;-76
2022/12/27 11:58:25;;;;;;;17.63;3.33;;;6.00;99.90;;;;;;4975782;28;20942;-77
2022/12/27 12:01:26;;;;;;;14.10;3.45;;;6.00;99.90;;;;;;4986605;28;20411;-76
2022/12/27 12:04:17;;;;;;;10.38;2.83;;;6.00;99.90;;;;;;4987868;28;20465;-76
2022/12/27 12:06:52;;;;;;;10.82;2.53;;;6.00;99.90;;;;;;4974316;28;20516;-76
2022/12/27 12:09:35;;;;;;;14.50;3.00;;;6.10;99.90;;;;;;4967061;28;20416;-76
2022/12/27 12:12:14;;;;;;;11.20;2.58;;;6.10;99.90;;;;;;4966544;28;20431;-76
2022/12/27 12:14:55;;;;;;;12.07;3.23;;;6.10;99.90;;;;;;4959612;28;20432;-75
2022/12/27 12:17:50;;;;;;;12.93;2.50;;;6.20;99.90;;;;;;4966140;28;20479;-77
2022/12/27 12:20:50;;;;;;;10.30;2.42;;;6.30;99.90;;;;;;4966996;28;20427;-76
2022/12/27 12:23:21;;;;;;;13.07;2.40;;;6.20;99.90;;;;;;4967626;28;20424;-76
2022/12/27 12:26:07;;;;;;;14.30;2.90;;;6.20;99.90;;;;;;4966493;28;20499;-77
2022/12/27 12:29:01;;;;;;;12.18;2.58;;;6.10;99.90;;;;;;4965054;28;20483;-74
2022/12/27 12:31:55;;;;;;;11.27;2.42;;;6.30;99.90;;;;;;4966313;28;20547;-76
2022/12/27 12:34:20;;;;;;;9.40;3.33;;;6.20;99.90;;;;;;4949193;28;20436;-75
2022/12/27 12:36:58;;;;;;;12.50;2.63;;;6.10;99.90;;;;;;4952349;28;20473;-75
2022/12/27 12:39:56;;;;;;;17.35;3.60;;;6.30;99.90;;;;;;4966648;28;20424;-75
2022/12/27 12:42:33;;;;;;;10.50;2.85;;;6.10;99.90;;;;;;4953809;28;20416;-76
2022/12/27 12:45:13;;;;;;;14.13;2.40;;;6.10;99.90;;;;;;4964120;28;20435;-75
2022/12/27 12:47:51;;;;;;;11.93;2.72;;;6.20;99.90;;;;;;4965244;28;20741;-77
2022/12/27 12:50:16;;;;;;;8.93;2.50;;;6.20;99.90;;;;;;4963954;28;20439;-76
2022/12/27 12:52:50;;;;;;;10.98;3.30;;;6.20;99.90;;;;;;4959485;28;20492;-75
2022/12/27 12:55:40;;;;;;;8.38;2.40;;;6.30;99.90;;;;;;4965869;28;20966;-76
2022/12/27 12:58:32;;;;;;;14.93;3.40;;;6.40;99.90;;;;;;4966147;28;20436;-75
2022/12/27 13:01:24;;;;;;;11.25;2.90;;;6.50;99.90;;;;;;4965378;28;20791;-75
2022/12/27 13:04:04;;;;;;;14.82;3.85;;;6.50;99.90;;;;;;4965679;28;20420;-76
2022/12/27 13:07:07;;;;;;;15.07;3.83;;;6.40;99.90;;;;;;4902239;28;1801995;-75
2022/12/27 13:09:56;;;;;;;11.77;4.05;;;6.50;99.90;;;;;;4946981;29;20437;-75
2022/12/27 13:12:43;;;;;;;12.52;3.00;;;6.40;99.90;;;;;;4924598;28;20441;-76
2022/12/27 13:15:47;;;;;;;14.52;2.53;;;6.40;99.90;;;;;;4948244;28;20501;-76
2022/12/27 13:18:44;;;;;;;12.70;2.73;;;6.50;99.90;;;;;;4947476;29;20441;-77
2022/12/27 13:21:18;;;;;;;14.50;2.83;;;6.60;99.90;;;;;;4958638;28;20451;-76
2022/12/27 13:24:17;;;;;;;13.38;3.75;;;6.50;99.90;;;;;;4968448;28;20447;-76
2022/12/27 13:27:11;;;;;;;17.17;4.70;;;6.50;99.90;;;;;;4968110;28;20416;-76
2022/12/27 13:29:51;;;;;;;16.92;5.40;;;6.50;99.90;;;;;;4968220;28;20448;-76
2022/12/27 13:32:41;;;;;;;14.90;3.85;;;6.40;99.90;;;;;;4966461;28;20464;-76
2022/12/27 13:35:52;;;;;;;14.82;4.22;;;6.50;99.90;;;;;;4961475;28;20420;-76
2022/12/27 13:38:31;;;;;;;12.13;3.88;;;6.40;99.90;;;;;;4936677;28;20447;-75
2022/12/27 13:41:18;;;;;;;13.60;3.97;;;6.40;99.90;;;;;;4966179;28;20998;-76
2022/12/27 13:44:02;;;;;;;11.23;3.70;;;6.30;99.90;;;;;;4966659;28;20424;-75
2022/12/27 13:47:05;;;;;;;10.55;3.20;;;6.40;99.90;;;;;;4966483;28;20416;-76
2022/12/27 13:49:49;;;;;;;13.37;3.07;;;6.20;99.90;;;;;;4966307;28;20435;-76
2022/12/27 13:52:56;;;;;;;12.13;4.22;;;6.10;99.90;;;;;;4965137;28;20432;-75
2022/12/27 13:55:45;;;;;;;15.93;4.63;;;6.10;99.90;;;;;;4966484;28;20438;-76
2022/12/27 13:58:26;;;;;;;16.13;5.10;;;6.10;99.90;;;;;;4966462;28;20448;-76
2022/12/27 14:01:07;;;;;;;12.95;4.75;;;6.30;99.90;;;;;;4966368;28;20486;-76
2022/12/27 14:03:51;;;;;;;9.93;4.05;;;6.10;99.90;;;;;;4966352;28;20432;-76
2022/12/27 14:06:29;;;;;;;16.52;5.93;;;6.10;99.90;;;;;;4965230;28;20836;-76
2022/12/27 14:09:18;;;;;;;11.83;3.93;;;6.30;99.90;;;;;;4965523;28;20416;-76
2022/12/27 14:12:41;;;;;;;12.45;3.88;;;6.20;99.90;;;;;;4960930;28;20444;-76
2022/12/27 14:15:13;;;;;;;12.93;3.58;;;6.20;99.90;;;;;;4901930;29;21032;-76
2022/12/27 14:17:49;;;;;;;12.10;3.67;;;6.30;99.90;;;;;;4897270;29;20516;-76
2022/12/27 14:20:41;;;;;;;12.15;4.10;;;6.40;99.90;;;;;;4929871;28;20448;-76
2022/12/27 14:23:42;;;;;;;11.68;4.10;;;6.30;99.90;;;;;;4935354;28;20520;-76
2022/12/27 14:26:41;;;;;;;14.32;3.95;;;6.10;99.90;;;;;;4947710;28;20413;-76
2022/12/27 14:29:26;;;;;;;10.82;3.70;;;6.10;99.90;;;;;;4964575;28;20436;-76
2022/12/27 14:32:01;;;;;;;11.88;3.97;;;6.20;99.90;;;;;;4950684;28;20442;-75
2022/12/27 14:34:48;;;;;;;15.40;5.63;;;6.10;99.90;;;;;;4962422;28;20432;-74
2022/12/27 14:37:29;;;;;;;11.98;4.30;;;6.10;99.90;;;;;;4957393;28;20775;-76
2022/12/27 14:40:28;;;;;;;13.05;5.00;;;6.00;99.90;;;;;;4961643;28;20786;-75
2022/12/27 14:43:21;;;;;;;14.48;5.93;;;6.10;99.90;;;;;;4964344;28;20800;-76
2022/12/27 14:46:05;;;;;;;11.90;4.97;;;6.10;99.90;;;;;;4961016;28;20455;-77
2022/12/27 14:48:43;;;;;;;16.52;5.50;;;5.90;99.90;;;;;;4965391;28;20423;-77
2022/12/27 14:51:33;;;;;;;13.10;4.30;;;6.10;99.90;;;;;;4964687;28;20432;-76
2022/12/27 14:54:32;;;;;;;14.25;6.30;;;5.90;99.90;;;;;;4973838;28;20429;-77
2022/12/27 14:56:58;;;;;;;13.88;5.97;;;5.80;99.90;;;;;;4962825;28;20468;-77
2022/12/27 14:59:40;;;;;;;15.98;6.03;;;5.80;99.90;;;;;;4969403;28;20855;-79
2022/12/27 15:02:24;;;;;;;14.45;6.07;;;5.80;99.90;;;;;;4956874;28;20445;-77
2022/12/27 15:05:26;;;;;;;18.25;8.02;;;5.70;99.90;;;;;;4977666;28;20740;-78
2022/12/27 15:08:13;;;;;;;14.15;7.45;;;5.90;99.90;;;;;;4962016;28;20436;-75
2022/12/27 15:10:59;;;;;;;19.20;8.13;;;6.00;99.90;;;;;;4969305;28;20447;-75
2022/12/27 15:13:30;;;;;;;17.38;7.45;;;5.90;99.90;;;;;;4962549;28;20516;-78
2022/12/27 15:15:58;;;;;;;20.88;8.00;;;5.90;99.90;;;;;;4964733;28;20432;-75